createdAt,value
2023-03-20T00:00:03.744Z,13.83
2023-03-20T00:03:07.032Z,15.20
2023-03-20T00:06:17.654Z,16.50
2023-03-20T00:09:20.774Z,15.03
2023-03-20T00:12:27.054Z,14.50
2023-03-20T00:15:33.399Z,14.87
2023-03-20T00:18:36.698Z,15.57
2023-03-20T00:21:41.220Z,15.10
2023-03-20T00:24:44.333Z,13.53
2023-03-20T00:27:48.004Z,13.50
2023-03-20T00:30:51.165Z,15.17
2023-03-20T00:33:56.160Z,16.57
2023-03-20T00:37:00.758Z,14.67
2023-03-20T00:40:04.492Z,17.40
2023-03-20T00:43:07.838Z,19.33
2023-03-20T00:46:15.172Z,17.93
2023-03-20T00:49:18.544Z,18.90
2023-03-20T00:52:24.048Z,16.70
2023-03-20T00:55:29.282Z,16.77
2023-03-20T00:58:32.850Z,14.73
2023-03-20T01:01:36.466Z,14.23
2023-03-20T01:04:42.825Z,13.70
2023-03-20T01:07:47.760Z,14.50
2023-03-20T01:10:53.368Z,16.90
2023-03-20T01:13:57.305Z,14.13
2023-03-20T01:17:00.454Z,15.03
2023-03-20T01:20:03.656Z,16.60
2023-03-20T01:23:08.215Z,14.80
2023-03-20T01:26:23.666Z,14.47
2023-03-20T01:29:28.395Z,14.20
2023-03-20T01:32:31.570Z,14.47
2023-03-20T01:35:34.988Z,19.40
2023-03-20T01:38:40.481Z,19.07
2023-03-20T01:41:45.291Z,16.07
2023-03-20T01:44:48.646Z,16.93
2023-03-20T01:47:52.505Z,13.57
2023-03-20T01:50:55.838Z,13.60
2023-03-20T01:54:03.832Z,13.90
2023-03-20T01:57:11.770Z,14.53
2023-03-20T02:00:17.043Z,15.83
2023-03-20T02:03:21.240Z,14.57
2023-03-20T02:06:26.248Z,16.47
2023-03-20T02:09:30.798Z,16.03
2023-03-20T02:12:36.051Z,14.47
2023-03-20T02:15:59.117Z,13.70
2023-03-20T02:19:02.554Z,13.40
2023-03-20T02:22:36.460Z,15.57
2023-03-20T02:26:06.779Z,13.03
2023-03-20T02:29:46.601Z,14.10
2023-03-20T02:33:35.324Z,13.43
2023-03-20T02:36:58.497Z,14.03
2023-03-20T02:40:17.163Z,14.90
2023-03-20T02:43:28.112Z,14.07
2023-03-20T02:46:40.107Z,13.73
2023-03-20T02:49:54.112Z,15.47
2023-03-20T02:53:02.446Z,14.30
2023-03-20T02:56:13.809Z,16.33
2023-03-20T02:59:25.863Z,14.00
2023-03-20T03:02:35.607Z,14.53
2023-03-20T03:05:44.012Z,14.37
2023-03-20T03:08:51.438Z,14.27
2023-03-20T03:12:02.554Z,19.43
2023-03-20T03:15:09.405Z,14.93
2023-03-20T03:18:16.982Z,15.63
2023-03-20T03:21:21.472Z,14.53
2023-03-20T03:24:40.415Z,15.90
2023-03-20T03:27:49.912Z,20.33
2023-03-20T03:30:54.183Z,16.40
2023-03-20T03:33:59.909Z,14.80
2023-03-20T03:37:07.570Z,15.00
2023-03-20T03:40:21.021Z,17.43
2023-03-20T03:43:32.480Z,14.93
2023-03-20T03:46:44.563Z,17.13
2023-03-20T03:49:52.489Z,15.07
2023-03-20T03:52:59.759Z,15.60
2023-03-20T03:56:07.147Z,16.17
2023-03-20T03:59:20.287Z,16.37
2023-03-20T04:02:25.118Z,16.90
2023-03-20T04:05:33.195Z,15.07
2023-03-20T04:08:36.680Z,15.77
2023-03-20T04:11:40.124Z,13.70
2023-03-20T04:14:44.716Z,15.13
2023-03-20T04:17:47.890Z,14.43
2023-03-20T04:20:51.999Z,15.33
2023-03-20T04:23:55.183Z,14.73
2023-03-20T04:26:58.329Z,13.37
2023-03-20T04:30:02.922Z,16.63
2023-03-20T04:33:06.799Z,14.47
2023-03-20T04:36:10.673Z,15.97
2023-03-20T04:39:13.811Z,14.33
2023-03-20T04:42:17.350Z,17.13
2023-03-20T04:45:21.906Z,14.17
2023-03-20T04:48:25.130Z,14.93
2023-03-20T04:51:28.436Z,15.87
2023-03-20T04:54:31.812Z,14.40
2023-03-20T04:57:34.997Z,15.50
2023-03-20T05:00:39.784Z,16.03
2023-03-20T05:03:43.001Z,14.00
2023-03-20T05:06:49.183Z,14.03
2023-03-20T05:09:52.363Z,14.37
2023-03-20T05:12:55.548Z,14.47
2023-03-20T05:16:00.096Z,15.90
2023-03-20T05:19:03.278Z,14.07
2023-03-20T05:22:06.427Z,15.73
2023-03-20T05:25:10.188Z,16.50
2023-03-20T05:28:13.305Z,17.57
2023-03-20T05:31:17.855Z,16.70
2023-03-20T05:34:21.252Z,19.07
2023-03-20T05:37:24.415Z,15.87
2023-03-20T05:40:27.588Z,17.50
2023-03-20T05:43:30.759Z,22.97
2023-03-20T05:46:35.482Z,18.67
2023-03-20T05:49:38.688Z,16.40
2023-03-20T05:52:41.919Z,16.47
2023-03-20T05:55:45.752Z,20.77
2023-03-20T05:58:48.955Z,16.33
2023-03-20T06:01:53.488Z,17.73
2023-03-20T06:04:56.653Z,17.33
2023-03-20T06:07:59.803Z,17.30
2023-03-20T06:11:04.062Z,17.07
2023-03-20T06:14:07.512Z,16.93
2023-03-20T06:17:12.070Z,17.93
2023-03-20T06:20:15.616Z,17.73
2023-03-20T06:23:18.774Z,16.60
2023-03-20T06:26:22.194Z,15.27
2023-03-20T06:29:25.423Z,16.33
2023-03-20T06:32:29.957Z,16.00
2023-03-20T06:35:33.945Z,18.90
2023-03-20T06:38:37.615Z,18.07
2023-03-20T06:41:40.714Z,16.63
2023-03-20T06:44:44.816Z,20.03
2023-03-20T06:47:49.600Z,17.97
2023-03-20T06:50:53.737Z,16.90
2023-03-20T06:53:56.884Z,16.83
2023-03-20T06:57:00.327Z,19.03
2023-03-20T07:00:04.817Z,15.33
2023-03-20T07:03:10.233Z,16.67
2023-03-20T07:06:13.489Z,17.13
2023-03-20T07:09:17.625Z,16.30
2023-03-20T07:12:20.937Z,17.70
2023-03-20T07:15:24.777Z,21.47
2023-03-20T07:18:29.712Z,15.67
2023-03-20T07:21:33.233Z,16.10
2023-03-20T07:24:36.672Z,19.20
2023-03-20T07:27:39.854Z,19.87
2023-03-20T07:30:42.995Z,18.50
2023-03-20T07:33:47.654Z,23.00
2023-03-20T07:36:50.964Z,17.00
2023-03-20T07:39:54.107Z,16.70
2023-03-20T07:42:57.287Z,17.10
2023-03-20T07:46:02.811Z,22.10
2023-03-20T07:49:07.441Z,24.67
2023-03-20T07:52:10.732Z,18.83
2023-03-20T07:55:13.904Z,23.33
2023-03-20T07:58:17.100Z,18.83
2023-03-20T08:01:20.452Z,18.13
2023-03-20T08:04:25.008Z,16.67
2023-03-20T08:07:29.647Z,15.10
2023-03-20T08:10:33.078Z,15.93
2023-03-20T08:13:36.247Z,17.37
2023-03-20T08:16:39.473Z,15.90
2023-03-20T08:19:44.026Z,16.60
2023-03-20T08:22:47.230Z,12.87
2023-03-20T08:25:50.994Z,14.07
2023-03-20T08:28:54.174Z,12.57
2023-03-20T08:31:57.880Z,16.37
2023-03-20T08:35:02.621Z,15.43
2023-03-20T08:38:05.931Z,18.57
2023-03-20T08:41:09.694Z,16.83
2023-03-20T08:44:13.504Z,16.77
2023-03-20T08:47:16.698Z,15.50
2023-03-20T08:50:21.637Z,21.57
2023-03-20T08:53:24.950Z,15.07
2023-03-20T08:56:28.185Z,17.50
2023-03-20T08:59:33.113Z,14.13
2023-03-20T09:02:38.435Z,15.80
2023-03-20T09:05:43.207Z,17.60
2023-03-20T09:08:46.382Z,16.30
2023-03-20T09:11:49.589Z,17.77
2023-03-20T09:14:52.763Z,19.30
2023-03-20T09:17:56.204Z,19.83
2023-03-20T09:21:01.231Z,20.50
2023-03-20T09:24:04.495Z,21.80
2023-03-20T09:27:07.722Z,22.60
2023-03-20T09:30:12.908Z,24.17
2023-03-20T09:33:16.126Z,22.37
2023-03-20T09:36:20.931Z,23.93
2023-03-20T09:39:24.213Z,20.03
2023-03-20T09:42:42.911Z,20.90
2023-03-20T09:45:53.142Z,19.90
2023-03-20T09:49:03.518Z,18.63
2023-03-20T09:52:23.634Z,19.07
2023-03-20T09:55:34.244Z,22.23
2023-03-20T09:58:40.123Z,17.37
2023-03-20T10:01:49.546Z,16.73
2023-03-20T10:04:55.515Z,15.33
2023-03-20T10:08:02.716Z,15.97
2023-03-20T10:11:23.007Z,15.97
2023-03-20T10:14:32.726Z,16.47
2023-03-20T10:17:49.342Z,14.17
2023-03-20T10:20:59.156Z,13.93
2023-03-20T10:24:05.923Z,14.87
2023-03-20T10:27:18.983Z,12.43
2023-03-20T10:30:38.647Z,12.73
2023-03-20T10:33:56.043Z,10.57
2023-03-20T10:37:15.430Z,10.30
2023-03-20T10:40:30.374Z,10.60
2023-03-20T10:43:39.420Z,12.50
2023-03-20T10:46:46.004Z,18.60
2023-03-20T10:49:54.209Z,10.00
2023-03-20T10:52:58.501Z,9.13
2023-03-20T10:56:07.321Z,7.33
2023-03-20T10:59:18.545Z,11.70
2023-03-20T11:02:23.329Z,5.00
2023-03-20T11:05:31.716Z,4.33
2023-03-20T11:08:38.183Z,3.57
2023-03-20T11:11:44.700Z,3.60
2023-03-20T11:14:47.872Z,3.77
2023-03-20T11:17:56.140Z,3.50
2023-03-20T11:20:59.598Z,4.00
2023-03-20T11:24:03.123Z,2.83
2023-03-20T11:27:11.517Z,3.03
2023-03-20T11:30:18.461Z,2.80
2023-03-20T11:33:21.740Z,3.10
2023-03-20T11:36:28.247Z,3.30
2023-03-20T11:39:34.059Z,2.70
2023-03-20T11:42:38.665Z,5.27
2023-03-20T11:45:44.013Z,4.43
2023-03-20T11:48:48.274Z,3.60
2023-03-20T11:51:51.605Z,6.33
2023-03-20T11:54:57.943Z,3.40
2023-03-20T11:58:05.080Z,3.33
2023-03-20T12:01:13.081Z,3.67
2023-03-20T12:04:19.256Z,3.10
2023-03-20T12:07:27.841Z,2.97
2023-03-20T12:10:37.208Z,2.90
2023-03-20T12:13:47.309Z,3.70
2023-03-20T12:16:53.282Z,2.93
2023-03-20T12:20:02.565Z,3.77
2023-03-20T12:23:14.382Z,4.60
2023-03-20T12:26:22.471Z,6.10
2023-03-20T12:29:31.652Z,6.07
2023-03-20T12:32:42.078Z,6.10
2023-03-20T12:35:50.160Z,8.03
2023-03-20T12:38:53.456Z,10.17
2023-03-20T12:42:15.376Z,5.70
2023-03-20T12:45:22.626Z,5.40
2023-03-20T12:48:44.644Z,3.97
2023-03-20T12:51:59.698Z,3.53
2023-03-20T12:55:16.761Z,3.47
2023-03-20T12:58:28.331Z,3.93
2023-03-20T13:01:37.220Z,4.63
2023-03-20T13:04:52.580Z,3.47
2023-03-20T13:08:11.935Z,2.90
2023-03-20T13:11:20.438Z,3.30
2023-03-20T13:14:29.390Z,3.90
2023-03-20T13:17:38.722Z,5.03
2023-03-20T13:20:51.186Z,4.47
2023-03-20T13:24:03.756Z,4.17
2023-03-20T13:27:22.340Z,4.93
2023-03-20T13:30:33.372Z,4.37
2023-03-20T13:33:48.603Z,4.00
2023-03-20T13:37:19.973Z,4.50
2023-03-20T13:40:28.379Z,4.23
2023-03-20T13:43:35.777Z,3.87
2023-03-20T13:46:44.624Z,3.97
2023-03-20T13:49:57.394Z,3.37
2023-03-20T13:53:10.470Z,3.60
2023-03-20T13:56:23.601Z,3.30
2023-03-20T13:59:41.518Z,3.60
2023-03-20T14:03:03.255Z,3.43
2023-03-20T14:06:20.194Z,3.97
2023-03-20T14:09:29.595Z,3.47
2023-03-20T14:12:34.108Z,3.10
2023-03-20T14:15:39.630Z,3.40
2023-03-20T14:18:44.532Z,3.23
2023-03-20T14:21:52.225Z,3.83
2023-03-20T14:24:58.924Z,6.30
2023-03-20T14:28:09.356Z,4.43
2023-03-20T14:31:21.670Z,3.20
2023-03-20T14:34:25.944Z,3.63
2023-03-20T14:37:37.644Z,4.87
2023-03-20T14:40:49.033Z,3.37
2023-03-20T14:44:09.828Z,3.80
2023-03-20T14:47:23.660Z,2.70
2023-03-20T14:50:33.088Z,3.20
2023-03-20T14:53:37.657Z,3.07
2023-03-20T14:56:40.853Z,2.97
2023-03-20T14:59:44.111Z,3.23
2023-03-20T15:02:49.583Z,2.13
2023-03-20T15:05:59.082Z,3.00
2023-03-20T15:09:08.191Z,2.23
2023-03-20T15:12:15.392Z,2.37
2023-03-20T15:15:27.360Z,2.37
2023-03-20T15:18:30.585Z,3.13
2023-03-20T15:21:35.947Z,3.57
2023-03-20T15:24:40.552Z,5.13
2023-03-20T15:27:44.615Z,5.10
2023-03-20T15:30:49.947Z,2.33
2023-03-20T15:33:53.217Z,3.43
2023-03-20T15:36:59.048Z,3.50
2023-03-20T15:40:12.518Z,3.87
2023-03-20T15:43:20.171Z,2.73
2023-03-20T15:46:27.855Z,2.07
2023-03-20T15:49:33.917Z,4.00
2023-03-20T15:52:42.049Z,4.77
2023-03-20T15:55:51.015Z,3.53
2023-03-20T15:58:56.854Z,3.40
2023-03-20T16:02:02.780Z,2.47
2023-03-20T16:05:10.859Z,4.40
2023-03-20T16:08:15.215Z,4.27
2023-03-20T16:11:21.695Z,3.30
2023-03-20T16:14:27.672Z,3.07
2023-03-20T16:17:31.316Z,4.13
2023-03-20T16:20:38.197Z,3.40
2023-03-20T16:23:43.651Z,6.97
2023-03-20T16:26:51.494Z,4.97
2023-03-20T16:29:56.480Z,5.87
2023-03-20T16:33:02.235Z,4.47
2023-03-20T16:36:06.495Z,5.80
2023-03-20T16:39:17.919Z,5.03
2023-03-20T16:42:26.117Z,5.17
2023-03-20T16:45:32.084Z,7.47
2023-03-20T16:48:37.817Z,13.83
2023-03-20T16:51:45.105Z,27.17
2023-03-20T16:54:48.347Z,12.20
2023-03-20T16:57:57.646Z,11.93
2023-03-20T17:01:03.722Z,11.30
2023-03-20T17:04:19.100Z,16.30
2023-03-20T17:07:25.674Z,9.87
2023-03-20T17:10:30.738Z,10.13
2023-03-20T17:13:35.496Z,6.90
2023-03-20T17:16:40.459Z,8.60
2023-03-20T17:19:43.744Z,9.00
2023-03-20T17:22:47.562Z,9.77
2023-03-20T17:25:53.035Z,8.03
2023-03-20T17:28:57.973Z,6.20
2023-03-20T17:32:01.418Z,11.73
2023-03-20T17:35:05.437Z,7.50
2023-03-20T17:38:17.080Z,7.27
2023-03-20T17:41:21.860Z,5.80
2023-03-20T17:44:28.048Z,6.50
2023-03-20T17:47:32.129Z,11.93
2023-03-20T17:50:37.370Z,7.70
2023-03-20T17:53:41.013Z,11.43
2023-03-20T17:56:44.962Z,9.07
2023-03-20T17:59:51.489Z,6.60
2023-03-20T18:02:55.558Z,8.63
2023-03-20T18:05:58.940Z,10.40
2023-03-20T18:09:02.963Z,17.20
2023-03-20T18:12:07.562Z,11.57
2023-03-20T18:15:14.439Z,8.27
2023-03-20T18:18:23.652Z,8.03
2023-03-20T18:21:28.724Z,9.00
2023-03-20T18:24:33.478Z,8.40
2023-03-20T18:27:37.790Z,8.03
2023-03-20T18:30:44.634Z,12.47
2023-03-20T18:33:50.190Z,9.73
2023-03-20T18:36:54.986Z,9.63
2023-03-20T18:40:01.593Z,8.90
2023-03-20T18:43:06.210Z,11.50
2023-03-20T18:46:16.175Z,11.27
2023-03-20T18:49:23.179Z,12.37
2023-03-20T18:52:28.262Z,9.77
2023-03-20T18:55:34.064Z,14.90
2023-03-20T18:58:39.391Z,11.87
2023-03-20T19:01:46.458Z,10.07
2023-03-20T19:04:54.516Z,11.13
2023-03-20T19:08:01.636Z,11.90
2023-03-20T19:11:10.511Z,9.90
2023-03-20T19:14:16.227Z,13.17
2023-03-20T19:17:22.017Z,14.57
2023-03-20T19:20:36.706Z,8.83
2023-03-20T19:23:41.894Z,9.07
2023-03-20T19:26:48.013Z,9.37
2023-03-20T19:29:52.336Z,12.10
2023-03-20T19:33:06.888Z,8.97
2023-03-20T19:36:26.830Z,9.83
2023-03-20T19:39:32.490Z,10.27
2023-03-20T19:42:59.008Z,10.30
2023-03-20T19:46:03.652Z,10.43
2023-03-20T19:49:20.295Z,13.90
2023-03-20T19:52:34.300Z,11.37
2023-03-20T19:55:39.638Z,12.13
2023-03-20T19:58:43.689Z,11.87
2023-03-20T20:01:48.879Z,17.73
2023-03-20T20:04:55.795Z,19.50
2023-03-20T20:08:24.014Z,15.13
2023-03-20T20:11:25.658Z,12.13
2023-03-20T20:14:30.500Z,11.97
2023-03-20T20:17:35.371Z,14.30
2023-03-20T20:21:22.270Z,10.90
2023-03-20T20:24:07.939Z,11.60
2023-03-20T20:27:18.214Z,12.70
2023-03-20T20:30:24.514Z,12.63
2023-03-20T20:33:29.609Z,12.37
2023-03-20T20:37:25.658Z,13.23
2023-03-20T20:40:01.135Z,13.03
2023-03-20T20:43:10.483Z,12.17
2023-03-20T20:46:15.095Z,9.80
2023-03-20T20:49:20.156Z,31.10
2023-03-20T20:52:26.023Z,18.17
2023-03-20T20:55:30.289Z,25.77
2023-03-20T20:58:34.401Z,18.53
2023-03-20T21:01:38.869Z,24.70
2023-03-20T21:04:44.740Z,19.90
2023-03-20T21:07:52.635Z,16.70
2023-03-20T21:10:57.115Z,16.80
2023-03-20T21:14:00.880Z,12.93
2023-03-20T21:17:05.383Z,13.70
2023-03-20T21:20:11.099Z,15.07
2023-03-20T21:23:17.602Z,12.47
2023-03-20T21:26:21.631Z,11.57
2023-03-20T21:29:26.077Z,14.90
2023-03-20T21:32:32.590Z,10.87
2023-03-20T21:35:38.315Z,9.03
2023-03-20T21:42:06.192Z,12.77
2023-03-20T21:46:09.859Z,11.63
2023-03-20T21:49:24.130Z,10.43
2023-03-20T21:59:29.320Z,9.00
2023-03-20T22:02:19.303Z,8.33
2023-03-20T22:06:02.374Z,8.20
2023-03-20T22:23:15.285Z,6.90
2023-03-20T22:27:01.696Z,10.00
2023-03-20T22:30:04.700Z,9.03
2023-03-20T22:33:41.055Z,11.67
2023-03-20T22:43:51.065Z,5.77
2023-03-20T22:46:44.675Z,7.33
2023-03-20T22:49:44.716Z,8.43
2023-03-20T22:52:49.764Z,8.37
2023-03-20T22:55:53.789Z,8.37
2023-03-20T22:58:56.966Z,9.00
2023-03-20T23:02:01.531Z,10.60
2023-03-20T23:05:05.068Z,7.13
2023-03-20T23:08:09.577Z,6.53
2023-03-20T23:11:12.949Z,5.83
2023-03-20T23:14:23.658Z,6.63
2023-03-20T23:17:29.444Z,6.60
2023-03-20T23:20:32.788Z,7.40
2023-03-20T23:23:35.953Z,6.87
2023-03-20T23:26:39.159Z,6.00
2023-03-20T23:29:42.314Z,6.07
2023-03-20T23:32:47.145Z,7.40
2023-03-20T23:35:51.432Z,8.07
2023-03-20T23:38:56.330Z,5.70
2023-03-20T23:42:10.218Z,6.73
2023-03-20T23:45:20.587Z,5.03
2023-03-20T23:48:28.148Z,6.23
2023-03-20T23:51:31.405Z,5.73
2023-03-20T23:54:34.579Z,6.30
2023-03-20T23:57:37.691Z,5.30
